Time;durP1;ratioP1;P1;durP2;ratioP2;P2;SDS_P1;SDS_P2;PMS_P1;PMS_P2;Temp;Humidity;BMP_temperature;BMP_pressure;BME280_temperature;BME280_humidity;BME280_pressure;Samples;Min_cycle;Max_cycle;Signal;HPM_P1;HPM_P2
2021/07/21 00:02:20;;;;;;;14.63;8.32;;;;;;;17.18;94.33;101948.09;6299419;28;20053;-75
2021/07/21 00:05:24;;;;;;;17.42;9.32;;;;;;;17.16;95.38;101952.66;6299991;28;20084;-75
2021/07/21 00:08:26;;;;;;;15.95;8.38;;;;;;;17.10;95.24;101946.88;6299821;28;20110;-77
2021/07/21 00:14:46;;;;;;;16.37;8.80;;;;;;;17.09;96.20;101939.84;6299825;28;20049;-75
2021/07/21 00:17:58;;;;;;;16.73;8.48;;;;;;;17.09;95.63;101946.03;6299942;28;20275;-75
2021/07/21 00:20:59;;;;;;;16.25;8.82;;;;;;;17.05;95.93;101941.84;6299837;28;20187;-75
2021/07/21 00:24:02;;;;;;;15.70;8.57;;;;;;;16.96;96.92;101943.25;6299694;28;20491;-75
2021/07/21 00:27:03;;;;;;;16.27;9.13;;;;;;;16.97;97.52;101944.94;6299744;28;20059;-75
2021/07/21 00:30:09;;;;;;;14.05;8.55;;;;;;;16.99;97.74;101943.06;6299299;28;20055;-75
2021/07/21 00:33:10;;;;;;;14.82;8.90;;;;;;;17.04;97.73;101942.78;6299363;28;20048;-75
2021/07/21 00:36:11;;;;;;;13.98;7.95;;;;;;;16.99;97.25;101940.41;6299317;28;20041;-75
2021/07/21 00:39:14;;;;;;;18.23;8.23;;;;;;;16.98;97.42;101936.03;6299411;28;20048;-75
2021/07/21 00:42:15;;;;;;;14.15;8.88;;;;;;;16.99;97.41;101934.25;6299007;28;20048;-75
2021/07/21 00:45:17;;;;;;;15.45;8.75;;;;;;;16.99;97.49;101937.75;6299158;28;20044;-75
2021/07/21 00:48:18;;;;;;;16.88;8.27;;;;;;;16.98;97.61;101937.84;6299061;28;20049;-75
2021/07/21 00:51:20;;;;;;;18.08;9.32;;;;;;;16.99;97.67;101936.91;6298857;28;20056;-75
2021/07/21 00:54:23;;;;;;;15.00;8.40;;;;;;;16.91;98.19;101941.84;6298953;28;20045;-75
2021/07/21 00:57:24;;;;;;;15.32;8.80;;;;;;;16.91;98.23;101937.38;6299055;28;20056;-76
2021/07/21 01:00:26;;;;;;;15.02;8.30;;;;;;;16.89;98.53;101941.06;6298340;28;20048;-76
2021/07/21 01:03:27;;;;;;;17.02;8.60;;;;;;;16.85;99.40;101940.41;6298579;28;20049;-75
2021/07/21 01:06:29;;;;;;;15.70;9.25;;;;;;;16.85;99.68;101940.41;6298616;28;20396;-77
2021/07/21 01:09:33;;;;;;;17.98;9.25;;;;;;;16.94;99.50;101944.28;6298688;28;20044;-77
2021/07/21 01:12:39;;;;;;;15.40;9.45;;;;;;;16.76;100.00;101946.28;6298385;28;20525;-76
2021/07/21 01:15:46;;;;;;;17.88;10.52;;;;;;;16.75;100.00;101944.53;6298720;28;20408;-77
2021/07/21 01:18:54;;;;;;;19.13;10.82;;;;;;;16.72;100.00;101952.72;6298318;28;20060;-76
2021/07/21 01:22:12;;;;;;;17.17;10.27;;;;;;;16.68;100.00;101952.00;6298415;28;20059;-76
2021/07/21 01:25:17;;;;;;;16.30;10.05;;;;;;;16.80;100.00;101949.56;6298150;28;20052;-76
2021/07/21 01:28:21;;;;;;;19.40;10.43;;;;;;;16.72;100.00;101958.03;6298388;28;20048;-77
2021/07/21 01:31:28;;;;;;;23.27;11.45;;;;;;;16.64;100.00;101957.59;6297802;28;20048;-76
2021/07/21 01:34:33;;;;;;;17.17;10.55;;;;;;;16.71;100.00;101953.59;6298208;28;20060;-76
2021/07/21 01:37:38;;;;;;;22.42;11.02;;;;;;;16.64;100.00;101954.94;6298029;28;20049;-76
2021/07/21 01:40:43;;;;;;;16.77;10.73;;;;;;;16.54;100.00;101948.47;6297804;28;20059;-76
2021/07/21 01:43:49;;;;;;;19.02;11.80;;;;;;;16.52;100.00;101956.50;6297811;28;20052;-76
2021/07/21 01:46:54;;;;;;;16.23;10.10;;;;;;;16.63;100.00;101959.38;6297790;28;20053;-76
2021/07/21 01:49:57;;;;;;;18.17;10.00;;;;;;;16.58;100.00;101955.28;6297572;28;20044;-77
2021/07/21 01:53:00;;;;;;;18.65;10.13;;;;;;;16.61;100.00;101960.41;6297144;28;20131;-76
2021/07/21 01:56:03;;;;;;;20.20;10.02;;;;;;;16.52;100.00;101956.50;6297598;28;20048;-76
2021/07/21 01:59:08;;;;;;;16.17;10.48;;;;;;;16.56;100.00;101955.38;6297158;28;20059;-76
2021/07/21 02:02:11;;;;;;;17.23;10.32;;;;;;;16.56;100.00;101955.38;6296597;28;20450;-76
2021/07/21 02:05:14;;;;;;;16.45;9.32;;;;;;;16.59;100.00;101959.66;6297464;28;20040;-76
2021/07/21 02:08:19;;;;;;;19.13;10.02;;;;;;;16.60;100.00;101956.06;6297171;28;20133;-76
2021/07/21 02:11:22;;;;;;;19.50;9.63;;;;;;;16.50;100.00;101945.13;6297133;28;20515;-75
2021/07/21 02:14:25;;;;;;;17.77;9.63;;;;;;;16.44;100.00;101942.81;6296668;28;20051;-76
2021/07/21 02:17:27;;;;;;;12.85;9.07;;;;;;;16.42;100.00;101952.69;6296884;28;20419;-77
2021/07/21 02:20:29;;;;;;;16.02;9.38;;;;;;;16.38;100.00;101945.84;6296896;28;20047;-77
2021/07/21 02:23:33;;;;;;;14.77;9.38;;;;;;;16.40;100.00;101950.13;6296608;28;20458;-77
2021/07/21 02:26:36;;;;;;;15.40;9.32;;;;;;;16.43;100.00;101943.78;6296662;28;20048;-76
2021/07/21 02:29:41;;;;;;;22.70;9.73;;;;;;;16.48;100.00;101945.19;6296589;28;20170;-75
2021/07/21 02:32:47;;;;;;;16.17;9.25;;;;;;;16.38;100.00;101948.50;6296798;28;20059;-77
2021/07/21 02:35:49;;;;;;;15.13;9.30;;;;;;;16.42;100.00;101948.22;6296586;28;20040;-77
2021/07/21 02:38:51;;;;;;;16.80;9.70;;;;;;;16.38;100.00;101956.47;6296703;28;20040;-77
2021/07/21 02:41:54;;;;;;;13.30;9.20;;;;;;;16.42;100.00;101958.00;6296337;28;20510;-76
2021/07/21 02:44:56;;;;;;;16.10;8.40;;;;;;;16.40;100.00;101957.25;6296590;28;20052;-77
2021/07/21 02:47:58;;;;;;;14.13;9.25;;;;;;;16.41;100.00;101948.34;6296496;28;20048;-77
2021/07/21 02:51:05;;;;;;;15.20;8.93;;;;;;;16.44;100.00;101958.75;6295922;28;20055;-77
2021/07/21 02:54:13;;;;;;;19.15;9.07;;;;;;;16.41;100.00;101958.94;6296447;28;20427;-77
2021/07/21 02:57:21;;;;;;;14.90;9.93;;;;;;;16.36;100.00;101961.88;6296609;28;20049;-77
2021/07/21 03:00:26;;;;;;;16.13;10.00;;;;;;;16.37;100.00;101949.44;6295752;28;20052;-77
2021/07/21 03:03:29;;;;;;;17.17;9.07;;;;;;;16.42;100.00;101956.19;6296028;28;20385;-76
2021/07/21 03:06:32;;;;;;;16.13;8.93;;;;;;;16.48;100.00;101952.31;6296162;28;20177;-76
2021/07/21 03:09:35;;;;;;;13.68;8.65;;;;;;;16.49;100.00;101948.75;6296407;28;20056;-76
2021/07/21 03:12:38;;;;;;;15.32;9.23;;;;;;;16.48;100.00;101949.66;6295970;28;20045;-76
2021/07/21 03:15:43;;;;;;;18.52;9.05;;;;;;;16.47;100.00;101948.81;6296368;28;20055;-76
2021/07/21 03:18:47;;;;;;;15.07;9.23;;;;;;;16.44;100.00;101954.31;6296096;28;20052;-77
2021/07/21 03:21:48;;;;;;;17.60;9.27;;;;;;;16.56;100.00;101949.22;6295838;28;20052;-77
2021/07/21 03:24:51;;;;;;;16.25;9.90;;;;;;;16.40;100.00;101938.66;6297724;28;20049;-77
2021/07/21 03:27:54;;;;;;;16.35;9.77;;;;;;;16.42;100.00;101947.38;6300924;28;20052;-77
2021/07/21 03:30:57;;;;;;;22.10;11.57;;;;;;;16.37;100.00;101952.09;6300728;28;20048;-77
2021/07/21 03:34:03;;;;;;;18.25;10.40;;;;;;;16.38;100.00;101946.69;6300757;28;20048;-76
2021/07/21 03:37:07;;;;;;;17.55;9.95;;;;;;;16.38;100.00;101954.66;6300963;28;20045;-77
2021/07/21 03:40:09;;;;;;;17.48;9.73;;;;;;;16.41;100.00;101949.19;6300517;28;20060;-76
2021/07/21 03:43:11;;;;;;;16.77;9.40;;;;;;;16.44;100.00;101958.75;6300405;28;20466;-76
2021/07/21 03:46:15;;;;;;;16.00;9.55;;;;;;;16.47;100.00;101959.44;6300424;28;20072;-76
2021/07/21 03:49:18;;;;;;;13.65;8.95;;;;;;;16.52;100.00;101966.25;6300619;28;20058;-76
2021/07/21 03:52:20;;;;;;;15.27;9.63;;;;;;;16.43;100.00;101963.19;6300155;28;20131;-76
2021/07/21 03:55:25;;;;;;;19.08;9.93;;;;;;;16.44;100.00;101969.34;6300599;28;20048;-76
2021/07/21 03:58:27;;;;;;;15.65;9.13;;;;;;;16.48;100.00;101968.25;6300345;28;20083;-76
2021/07/21 04:01:29;;;;;;;15.95;8.80;;;;;;;16.46;100.00;101970.13;6299522;28;20056;-77
2021/07/21 04:04:31;;;;;;;20.33;9.98;;;;;;;16.48;100.00;101973.53;6300264;28;20056;-76
2021/07/21 04:07:35;;;;;;;18.10;9.88;;;;;;;16.48;100.00;101973.53;6300297;28;20052;-77
2021/07/21 04:10:37;;;;;;;14.98;8.63;;;;;;;16.56;100.00;101975.75;6299979;28;20052;-76
2021/07/21 04:13:40;;;;;;;19.02;9.77;;;;;;;16.45;100.00;101973.75;6299578;28;20415;-76
2021/07/21 04:16:44;;;;;;;17.90;9.57;;;;;;;16.46;100.00;101973.66;6300000;28;20044;-76
2021/07/21 04:19:47;;;;;;;14.50;9.65;;;;;;;16.45;100.00;101979.06;6299802;28;20051;-76
2021/07/21 04:22:49;;;;;;;16.77;9.75;;;;;;;16.45;100.00;101976.41;6299575;28;20506;-76
2021/07/21 04:25:52;;;;;;;17.50;9.88;;;;;;;16.48;100.00;101977.06;6299526;28;20522;-76
2021/07/21 04:28:54;;;;;;;18.00;10.23;;;;;;;16.46;100.00;101984.25;6299463;28;20469;-76
2021/07/21 04:31:57;;;;;;;17.52;10.23;;;;;;;16.58;100.00;101980.03;6299482;28;20072;-76
2021/07/21 04:34:59;;;;;;;17.08;9.82;;;;;;;16.46;100.00;101983.41;6299337;28;20389;-76
2021/07/21 04:38:01;;;;;;;19.02;9.75;;;;;;;16.44;100.00;101982.63;6299691;28;20503;-75
2021/07/21 04:41:02;;;;;;;16.90;9.10;;;;;;;16.46;100.00;101978.09;6299230;28;20056;-77
2021/07/21 04:44:05;;;;;;;17.08;9.93;;;;;;;16.49;100.00;101981.44;6299131;28;20419;-76
2021/07/21 04:47:09;;;;;;;19.00;9.55;;;;;;;16.54;100.00;101986.47;6299487;28;20051;-76
2021/07/21 04:50:14;;;;;;;18.83;10.30;;;;;;;16.55;100.00;101987.31;6298883;28;20048;-76
2021/07/21 04:53:16;;;;;;;17.00;9.55;;;;;;;16.59;100.00;101987.06;6299216;28;20048;-76
2021/07/21 04:56:17;;;;;;;19.60;10.73;;;;;;;16.60;100.00;101990.56;6299430;28;20050;-77
2021/07/21 04:59:18;;;;;;;18.85;10.32;;;;;;;16.59;100.00;102002.13;6299206;28;20054;-77
2021/07/21 05:02:21;;;;;;;20.05;11.45;;;;;;;16.64;100.00;102010.69;6298614;28;20052;-77
2021/07/21 05:05:23;;;;;;;20.77;11.02;;;;;;;16.59;100.00;102010.09;6298903;28;20049;-77
2021/07/21 05:08:24;;;;;;;20.85;10.93;;;;;;;16.56;100.00;102024.38;6298961;28;20052;-76
2021/07/21 05:11:25;;;;;;;18.75;10.35;;;;;;;16.56;100.00;102026.19;6298235;28;20044;-75
2021/07/21 05:14:27;;;;;;;18.05;10.80;;;;;;;16.57;100.00;102023.44;6298739;28;20052;-77
2021/07/21 05:17:29;;;;;;;17.42;10.70;;;;;;;16.65;100.00;102023.84;6298336;28;20055;-75
2021/07/21 05:20:31;;;;;;;19.67;11.10;;;;;;;16.69;100.00;102033.34;6298524;28;20052;-77
2021/07/21 05:23:33;;;;;;;18.77;10.85;;;;;;;16.77;100.00;102029.44;6298030;28;20051;-77
2021/07/21 05:26:34;;;;;;;20.70;10.45;;;;;;;16.76;100.00;102028.56;6298160;28;20040;-77
2021/07/21 05:29:36;;;;;;;22.73;11.43;;;;;;;16.63;100.00;102030.19;6298060;28;20131;-75
2021/07/21 05:32:39;;;;;;;22.73;11.50;;;;;;;16.64;100.00;102038.06;6298344;28;20077;-77
2021/07/21 05:35:41;;;;;;;21.55;11.82;;;;;;;16.72;100.00;102033.22;6298194;28;20075;-77
2021/07/21 05:38:42;;;;;;;23.48;12.40;;;;;;;16.84;100.00;102030.75;6298241;28;20110;-77
2021/07/21 05:41:45;;;;;;;19.98;11.15;;;;;;;16.88;100.00;102032.28;6297733;28;20416;-77
2021/07/21 05:44:46;;;;;;;20.73;11.73;;;;;;;16.86;100.00;102039.50;6298310;28;20056;-77
2021/07/21 05:47:49;;;;;;;17.88;10.57;;;;;;;16.82;100.00;102036.16;6297271;28;20055;-77
2021/07/21 05:50:50;;;;;;;18.27;10.52;;;;;;;16.83;100.00;102034.38;6297862;28;20048;-77
2021/07/21 05:53:54;;;;;;;21.48;12.00;;;;;;;16.89;100.00;102034.00;6297592;28;20049;-77
2021/07/21 05:56:56;;;;;;;27.15;12.98;;;;;;;16.86;100.00;102048.31;6297603;28;20045;-77
2021/07/21 05:59:57;;;;;;;25.65;12.27;;;;;;;16.94;100.00;102046.06;6297436;28;20051;-76
2021/07/21 06:03:00;;;;;;;21.38;11.23;;;;;;;17.03;100.00;102046.44;6296984;28;20048;-77
2021/07/21 06:06:01;;;;;;;18.50;11.52;;;;;;;16.98;100.00;102049.38;6297253;28;20052;-76
2021/07/21 06:09:03;;;;;;;24.75;12.63;;;;;;;17.18;100.00;102053.53;6297037;28;20507;-77
2021/07/21 06:12:05;;;;;;;28.88;13.15;;;;;;;17.26;100.00;102056.56;6296968;28;20051;-76
2021/07/21 06:15:08;;;;;;;18.25;10.40;;;;;;;17.14;100.00;102058.16;6297006;28;20056;-77
2021/07/21 06:18:10;;;;;;;21.92;11.57;;;;;;;17.19;100.00;102060.53;6296623;28;20419;-76
2021/07/21 06:21:12;;;;;;;24.48;12.18;;;;;;;17.24;99.08;102067.28;6296713;28;20423;-76
2021/07/21 06:24:13;;;;;;;21.50;11.88;;;;;;;17.30;99.32;102071.34;6297013;28;20056;-76
2021/07/21 06:27:15;;;;;;;33.30;12.18;;;;;;;17.25;99.23;102066.31;6289880;28;20044;-76
2021/07/21 06:30:17;;;;;;;23.92;12.48;;;;;;;17.33;99.35;102075.66;6283561;28;20052;-76
2021/07/21 06:33:20;;;;;;;22.02;11.63;;;;;;;17.30;100.00;102075.81;6274274;28;20053;-76
2021/07/21 06:36:21;;;;;;;20.83;12.32;;;;;;;17.27;99.47;102076.03;6271905;28;20044;-77
2021/07/21 06:39:23;;;;;;;23.52;11.63;;;;;;;17.28;99.67;102081.22;6272122;28;20504;-76
2021/07/21 06:42:24;;;;;;;22.42;11.48;;;;;;;17.30;99.84;102083.78;6271417;28;20415;-77
2021/07/21 06:45:26;;;;;;;22.42;12.65;;;;;;;17.37;98.56;102080.69;6271812;28;20049;-77
2021/07/21 06:48:28;;;;;;;23.52;12.63;;;;;;;17.59;96.37;102088.22;6271650;28;20086;-76
2021/07/21 06:51:30;;;;;;;23.02;13.30;;;;;;;17.47;97.40;102086.28;6271220;28;20049;-75
2021/07/21 06:54:31;;;;;;;26.23;13.80;;;;;;;17.53;98.88;102096.53;6271883;28;20052;-78
2021/07/21 06:57:32;;;;;;;23.75;14.00;;;;;;;17.66;98.36;102101.97;6271608;28;20045;-76
2021/07/21 07:00:34;;;;;;;25.90;13.68;;;;;;;17.68;97.22;102095.63;6271064;28;20416;-77
2021/07/21 07:03:37;;;;;;;23.00;12.82;;;;;;;17.72;94.32;102093.63;6271193;28;20045;-76
2021/07/21 07:06:38;;;;;;;25.20;13.60;;;;;;;17.63;94.85;102092.38;6275623;28;20048;-76
2021/07/21 07:09:40;;;;;;;23.83;12.60;;;;;;;17.65;95.08;102097.59;6292194;28;20064;-76
2021/07/21 07:12:41;;;;;;;22.02;12.38;;;;;;;17.66;96.08;102100.16;6295742;28;20048;-77
2021/07/21 07:15:44;;;;;;;24.45;14.60;;;;;;;17.78;92.54;102098.59;6295543;28;20052;-76
2021/07/21 07:18:46;;;;;;;26.00;14.05;;;;;;;17.64;94.97;102095.91;6294508;28;20051;-76
2021/07/21 07:21:48;;;;;;;24.83;14.23;;;;;;;17.64;95.98;102096.75;6295880;28;20048;-76
2021/07/21 07:24:49;;;;;;;20.05;12.23;;;;;;;17.63;93.66;102094.19;6296027;28;20052;-76
2021/07/21 07:27:50;;;;;;;24.95;12.43;;;;;;;17.71;93.26;102100.75;6295700;28;20450;-76
2021/07/21 07:30:52;;;;;;;22.13;12.52;;;;;;;17.82;93.62;102104.56;6295954;28;20059;-76
2021/07/21 07:33:54;;;;;;;28.77;12.65;;;;;;;17.92;92.88;102100.38;6295441;28;20396;-76
2021/07/21 07:36:56;;;;;;;23.75;12.18;;;;;;;18.09;90.64;102096.66;6295969;28;20048;-76
2021/07/21 07:39:57;;;;;;;25.10;13.02;;;;;;;18.08;89.78;102103.81;6284256;28;20052;-75
2021/07/21 07:42:59;;;;;;;21.65;11.98;;;;;;;18.28;86.85;102096.34;6282513;28;20045;-76
2021/07/21 07:46:00;;;;;;;23.15;11.45;;;;;;;18.39;85.74;102094.69;6295298;28;20047;-76
2021/07/21 07:49:04;;;;;;;19.05;11.30;;;;;;;18.36;84.19;102105.56;6288266;28;20044;-74
2021/07/21 07:52:05;;;;;;;17.38;10.30;;;;;;;18.59;86.50;102097.88;6294868;28;20049;-75
2021/07/21 07:55:08;;;;;;;21.73;11.60;;;;;;;18.71;84.19;102103.28;6295155;28;20056;-75
2021/07/21 07:58:10;;;;;;;23.95;12.63;;;;;;;18.64;84.35;102098.44;6282610;28;20045;-75
2021/07/21 08:01:11;;;;;;;26.00;11.95;;;;;;;18.40;85.22;102095.56;6288056;28;20447;-75
2021/07/21 08:04:14;;;;;;;23.55;11.30;;;;;;;18.52;87.08;102102.72;6294621;28;20655;-76
2021/07/21 08:07:15;;;;;;;19.70;11.23;;;;;;;18.51;83.57;102104.53;6289653;28;20056;-75
2021/07/21 08:10:17;;;;;;;17.38;9.98;;;;;;;18.55;86.31;102094.56;6286607;28;20048;-76
2021/07/21 08:13:19;;;;;;;20.75;10.90;;;;;;;18.84;83.73;102095.31;6277842;28;20517;-76
2021/07/21 08:16:21;;;;;;;17.90;11.02;;;;;;;18.79;81.88;102099.25;6274824;28;20044;-75
2021/07/21 08:19:24;;;;;;;16.88;9.88;;;;;;;18.97;80.15;102106.84;6293029;28;20052;-76
2021/07/21 08:22:25;;;;;;;19.77;10.55;;;;;;;18.95;79.28;102110.59;6298934;28;20059;-74
2021/07/21 08:25:27;;;;;;;16.98;10.05;;;;;;;18.85;79.86;102098.81;6290896;28;20056;-74
2021/07/21 08:28:28;;;;;;;15.82;9.35;;;;;;;19.07;74.33;102099.09;6285809;28;20045;-74
2021/07/21 08:31:30;;;;;;;14.77;8.00;;;;;;;19.04;72.85;102101.13;6284488;28;20048;-75
2021/07/21 08:34:32;;;;;;;15.40;8.88;;;;;;;18.81;75.67;102108.00;6286331;28;20081;-75
2021/07/21 08:37:34;;;;;;;14.43;8.85;;;;;;;19.02;73.24;102096.75;6283860;28;20059;-75
2021/07/21 08:40:37;;;;;;;13.20;8.63;;;;;;;19.01;74.19;102112.84;6284360;28;20053;-74
2021/07/21 08:43:38;;;;;;;14.60;8.95;;;;;;;19.07;72.14;102091.09;6284270;28;20040;-74
2021/07/21 08:46:40;;;;;;;15.85;9.13;;;;;;;18.85;73.92;102097.03;6285543;28;20044;-74
2021/07/21 08:49:43;;;;;;;13.07;8.57;;;;;;;18.83;77.51;102106.09;6283665;28;20041;-75
2021/07/21 08:52:45;;;;;;;15.77;9.27;;;;;;;19.00;75.47;102111.13;6284595;28;20056;-75
2021/07/21 08:55:49;;;;;;;14.57;8.48;;;;;;;18.91;76.17;102112.59;6295851;28;20495;-76
2021/07/21 08:58:50;;;;;;;14.05;8.90;;;;;;;18.91;77.31;102101.94;6298613;28;20056;-75
2021/07/21 09:01:51;;;;;;;16.90;9.75;;;;;;;18.86;77.78;102111.22;6298434;28;20147;-74
2021/07/21 09:04:55;;;;;;;16.33;9.27;;;;;;;18.96;78.94;102113.16;6298546;28;20052;-73
2021/07/21 09:07:56;;;;;;;17.63;9.43;;;;;;;18.93;75.37;102117.81;6298615;28;20056;-74
2021/07/21 09:10:58;;;;;;;13.40;9.32;;;;;;;18.91;75.35;102120.59;6298363;28;20048;-76
2021/07/21 09:13:59;;;;;;;14.38;9.15;;;;;;;19.07;75.00;102119.56;6298402;28;20526;-75
2021/07/21 09:17:08;;;;;;;13.45;8.75;;;;;;;19.16;71.74;102121.59;6298425;28;20053;-75
2021/07/21 09:20:17;;;;;;;15.70;8.77;;;;;;;18.97;72.17;102114.84;6298320;28;20060;-75
2021/07/21 09:23:19;;;;;;;17.15;8.65;;;;;;;18.94;70.51;102115.06;6297890;28;20198;-75
2021/07/21 09:26:34;;;;;;;13.90;8.32;;;;;;;18.84;72.60;102113.97;6298233;28;20044;-75
2021/07/21 09:29:35;;;;;;;15.90;8.05;;;;;;;19.00;71.85;102114.66;6298024;28;20056;-77
2021/07/21 09:32:55;;;;;;;13.85;8.68;;;;;;;19.08;70.62;102114.16;6297914;28;20462;-76
2021/07/21 09:35:58;;;;;;;13.98;7.82;;;;;;;19.05;73.08;102114.34;6297428;28;20045;-75
2021/07/21 09:39:01;;;;;;;15.00;8.23;;;;;;;19.07;72.17;102114.22;6297980;28;20055;-76
2021/07/21 09:42:03;;;;;;;15.45;8.48;;;;;;;19.21;70.68;102116.81;6296556;28;20049;-76
2021/07/21 09:45:08;;;;;;;14.35;8.07;;;;;;;19.11;72.58;102118.41;6286125;28;20154;-75
2021/07/21 09:48:10;;;;;;;12.80;7.90;;;;;;;19.29;71.53;102122.47;6272408;28;20055;-76
2021/07/21 09:51:26;;;;;;;16.35;9.05;;;;;;;19.30;71.76;102112.66;6275077;28;20049;-76
2021/07/21 09:54:28;;;;;;;16.88;8.93;;;;;;;19.29;73.39;102118.97;6297508;28;20052;-76
2021/07/21 09:57:29;;;;;;;19.98;8.73;;;;;;;19.33;70.07;102117.81;6273797;28;20048;-75
2021/07/21 10:00:32;;;;;;;15.38;8.10;;;;;;;19.34;71.97;102103.50;6272268;28;20436;-76
2021/07/21 10:03:37;;;;;;;14.98;8.48;;;;;;;19.49;71.24;102099.81;6272183;28;20053;-76
2021/07/21 10:06:41;;;;;;;15.20;8.57;;;;;;;19.56;71.74;102103.72;6271049;28;20500;-75
2021/07/21 10:09:42;;;;;;;16.13;9.15;;;;;;;19.41;71.78;102105.66;6271381;28;20424;-76
2021/07/21 10:12:44;;;;;;;16.42;8.65;;;;;;;19.40;71.23;102098.63;6270145;28;20049;-74
2021/07/21 10:15:46;;;;;;;13.93;7.50;;;;;;;19.37;70.40;102096.16;6272262;28;20056;-76
2021/07/21 10:19:01;;;;;;;15.27;8.80;;;;;;;19.43;70.31;102089.53;6272127;28;20064;-75
2021/07/21 10:22:04;;;;;;;17.75;8.02;;;;;;;19.61;68.20;102087.44;6272121;28;20057;-75
2021/07/21 10:25:06;;;;;;;13.82;8.13;;;;;;;19.55;69.71;102093.19;6272173;28;20059;-74
2021/07/21 10:28:09;;;;;;;11.85;8.20;;;;;;;19.66;69.30;102078.16;6271811;28;20056;-76
2021/07/21 10:31:10;;;;;;;11.65;7.60;;;;;;;19.53;70.36;102087.97;6272004;28;20052;-76
2021/07/21 10:34:15;;;;;;;14.52;7.72;;;;;;;19.62;68.85;102087.34;6270953;28;20420;-75
2021/07/21 10:37:17;;;;;;;12.95;7.88;;;;;;;19.78;68.72;102081.78;6288791;22;20045;-76
2021/07/21 10:40:20;;;;;;;15.40;7.93;;;;;;;19.91;66.97;102082.63;6265455;28;20045;-77
2021/07/21 10:43:23;;;;;;;16.02;8.25;;;;;;;19.83;67.83;102089.47;6269221;28;20059;-77
2021/07/21 10:46:39;;;;;;;16.20;9.02;;;;;;;19.94;66.33;102082.41;6270198;28;20060;-77
2021/07/21 10:49:41;;;;;;;12.88;8.15;;;;;;;20.12;66.78;102087.34;6246812;28;20045;-76
2021/07/21 10:52:52;;;;;;;14.85;8.63;;;;;;;20.16;68.43;102084.34;6245085;28;20163;-77
2021/07/21 10:59:11;;;;;;;12.40;7.72;;;;;;;20.34;66.69;102076.81;6244819;28;20131;-75
2021/07/21 10:59:18;;;;;;;15.60;7.95;;;;;;;20.33;67.66;102063.59;6246195;28;20055;-74
2021/07/21 11:02:22;;;;;;;14.13;8.18;;;;;;;20.49;67.39;102065.06;6246344;28;20539;-75
2021/07/21 11:05:32;;;;;;;13.82;8.57;;;;;;;20.75;63.59;102060.41;6246749;28;20060;-75
2021/07/21 11:08:45;;;;;;;14.90;8.95;;;;;;;20.95;65.48;102060.75;6246251;28;20045;-75
2021/07/21 11:11:50;;;;;;;12.95;7.38;;;;;;;21.03;65.59;102066.38;6246484;28;20045;-75
2021/07/21 11:14:55;;;;;;;14.43;8.52;;;;;;;21.28;64.56;102057.28;6246066;28;20056;-75
2021/07/21 11:18:33;;;;;;;14.25;8.80;;;;;;;21.65;64.65;102065.13;6246389;28;20087;-75
2021/07/21 11:21:54;;;;;;;15.05;8.90;;;;;;;21.28;64.28;102068.84;6246358;28;20053;-76
2021/07/21 11:25:15;;;;;;;14.70;8.85;;;;;;;21.08;63.09;102066.84;6246353;28;20077;-77
2021/07/21 11:28:28;;;;;;;13.93;8.48;;;;;;;21.61;62.88;102064.50;6246367;28;20511;-75
2021/07/21 11:31:57;;;;;;;14.52;7.88;;;;;;;22.02;60.33;102065.69;6246191;28;20416;-74
2021/07/21 11:34:59;;;;;;;16.42;8.90;;;;;;;21.71;62.83;102054.81;6246360;28;20195;-75
2021/07/21 11:38:01;;;;;;;14.05;8.80;;;;;;;21.58;61.58;102055.91;6245911;28;20129;-76
2021/07/21 11:41:03;;;;;;;12.90;7.57;;;;;;;21.57;61.78;102057.69;6246156;28;20056;-75
2021/07/21 11:44:05;;;;;;;18.08;7.65;;;;;;;21.81;60.86;102056.75;6245947;28;20053;-74
2021/07/21 11:47:13;;;;;;;13.20;8.02;;;;;;;21.28;61.37;102052.78;6249499;28;20398;-76
2021/07/21 11:50:17;;;;;;;15.65;8.48;;;;;;;21.40;61.94;102053.69;6249705;28;20045;-75
2021/07/21 11:53:21;;;;;;;14.63;7.40;;;;;;;21.86;60.95;102047.38;6250574;28;20057;-75
2021/07/21 11:56:24;;;;;;;13.55;7.45;;;;;;;21.94;58.27;102052.13;6250754;28;20136;-76
2021/07/21 11:59:33;;;;;;;11.48;7.40;;;;;;;21.82;59.94;102048.59;6250961;28;20053;-75
2021/07/21 12:02:34;;;;;;;12.98;7.60;;;;;;;21.74;63.01;102049.19;6249638;28;20053;-75
2021/07/21 12:05:35;;;;;;;11.07;8.07;;;;;;;21.83;59.72;102050.28;6250591;28;20064;-77
2021/07/21 12:08:37;;;;;;;12.93;8.25;;;;;;;21.69;59.28;102040.69;6250016;28;20421;-75
2021/07/21 12:11:39;;;;;;;12.90;7.53;;;;;;;21.62;61.39;102050.19;6249962;28;20164;-76
2021/07/21 12:14:42;;;;;;;13.23;8.18;;;;;;;22.12;58.63;102045.28;6249919;28;20057;-76
2021/07/21 12:17:44;;;;;;;16.17;8.50;;;;;;;22.49;58.75;102044.94;6249843;28;20045;-77
2021/07/21 12:20:46;;;;;;;13.45;8.13;;;;;;;22.81;57.19;102036.88;6250125;28;20535;-75
2021/07/21 12:23:57;;;;;;;13.35;7.97;;;;;;;23.04;56.25;102032.25;6249036;28;20053;-76
2021/07/21 12:26:59;;;;;;;12.25;7.72;;;;;;;22.65;56.96;102045.34;6249971;28;20049;-76
2021/07/21 12:30:03;;;;;;;15.38;7.80;;;;;;;22.39;57.99;102042.19;6249633;28;20060;-75
2021/07/21 12:33:06;;;;;;;15.05;7.95;;;;;;;22.59;55.38;102048.53;6249023;28;20050;-76
2021/07/21 12:36:08;;;;;;;15.02;8.65;;;;;;;22.55;55.98;102041.72;6249279;28;20060;-76
2021/07/21 12:39:10;;;;;;;12.95;8.05;;;;;;;22.53;55.57;102036.53;6249457;28;20056;-73
2021/07/21 12:42:15;;;;;;;11.23;7.72;;;;;;;22.41;54.90;102039.34;6248751;28;20057;-75
2021/07/21 12:45:18;;;;;;;12.13;7.13;;;;;;;22.76;54.69;102042.63;6249363;28;20056;-76
2021/07/21 12:48:19;;;;;;;10.57;7.30;;;;;;;23.20;51.23;102031.78;6249199;28;20053;-76
2021/07/21 12:51:21;;;;;;;10.85;7.32;;;;;;;23.76;50.99;102032.22;6249439;28;20049;-77
2021/07/21 12:54:22;;;;;;;11.43;6.82;;;;;;;23.52;51.79;102026.28;6248195;28;20053;-73
2021/07/21 12:57:40;;;;;;;11.30;7.40;;;;;;;23.04;52.42;102024.22;6248883;28;20046;-73
2021/07/21 13:00:45;;;;;;;17.15;7.25;;;;;;;23.02;54.86;102032.38;6248995;28;20052;-74
2021/07/21 13:03:53;;;;;;;10.38;7.40;;;;;;;23.63;53.27;102026.19;6248408;28;20080;-74
2021/07/21 13:07:02;;;;;;;11.52;7.30;;;;;;;24.39;50.31;102026.56;6248666;28;20730;-74
2021/07/21 13:10:03;;;;;;;13.98;7.35;;;;;;;24.23;51.89;102023.53;6248924;28;20402;-74
2021/07/21 13:13:06;;;;;;;11.43;7.03;;;;;;;24.63;49.34;102019.91;6248095;28;20058;-76
2021/07/21 13:16:10;;;;;;;11.50;7.53;;;;;;;24.33;49.57;102026.22;6248419;28;20060;-73
2021/07/21 13:19:13;;;;;;;9.20;7.13;;;;;;;23.81;49.38;102022.91;6248716;28;20053;-75
2021/07/21 13:22:21;;;;;;;11.10;7.43;;;;;;;23.32;51.99;102029.88;6247837;28;20050;-75
2021/07/21 13:25:23;;;;;;;14.27;7.60;;;;;;;22.94;53.35;102028.69;6248471;28;20057;-76
2021/07/21 13:28:29;;;;;;;15.90;6.72;;;;;;;22.55;55.94;102022.97;6248117;28;20049;-76
2021/07/21 13:31:35;;;;;;;11.65;6.80;;;;;;;22.56;58.84;102030.03;6248520;28;20046;-74
2021/07/21 13:34:36;;;;;;;10.45;6.93;;;;;;;22.27;53.85;102019.91;6247281;28;20409;-76
2021/07/21 13:37:38;;;;;;;10.10;7.28;;;;;;;22.03;55.89;102033.47;6248199;28;20046;-76
2021/07/21 13:40:40;;;;;;;12.25;7.32;;;;;;;21.96;56.63;102032.25;6248061;28;20050;-77
2021/07/21 13:43:43;;;;;;;11.07;7.05;;;;;;;21.84;58.07;102035.06;6247607;28;20098;-76
2021/07/21 13:46:48;;;;;;;11.55;7.10;;;;;;;21.86;56.59;102031.31;6247777;28;20064;-76
2021/07/21 13:49:50;;;;;;;13.18;7.45;;;;;;;21.72;58.41;102035.09;6247613;28;20044;-76
2021/07/21 13:52:59;;;;;;;12.30;7.38;;;;;;;21.59;58.62;102033.53;6246955;28;20052;-76
2021/07/21 13:56:01;;;;;;;10.48;7.05;;;;;;;21.55;59.39;102034.72;6246751;28;20464;-76
2021/07/21 13:59:04;;;;;;;12.25;7.32;;;;;;;21.45;58.80;102039.97;6247346;28;20053;-76
2021/07/21 14:02:06;;;;;;;11.45;7.43;;;;;;;21.46;58.88;102033.63;6247417;28;20496;-81